createdAt,value
2023-05-08T00:02:26.646Z,11.60
2023-05-08T00:04:59.551Z,11.57
2023-05-08T00:07:30.903Z,11.55
2023-05-08T00:10:04.187Z,11.55
2023-05-08T00:12:36.925Z,11.58
2023-05-08T00:15:07.644Z,11.57
2023-05-08T00:17:36.792Z,11.58
2023-05-08T00:20:10.951Z,11.59
2023-05-08T00:22:42.528Z,11.58
2023-05-08T00:25:17.328Z,11.57
2023-05-08T00:27:46.518Z,11.56
2023-05-08T00:30:32.743Z,11.57
2023-05-08T00:33:05.573Z,11.59
2023-05-08T00:35:39.809Z,11.58
2023-05-08T00:38:09.092Z,11.59
2023-05-08T00:40:46.103Z,11.59
2023-05-08T00:43:15.595Z,11.59
2023-05-08T00:45:48.808Z,11.58
2023-05-08T00:48:18.975Z,11.56
2023-05-08T00:50:51.523Z,11.53
2023-05-08T00:53:22.592Z,11.50
2023-05-08T00:55:52.520Z,11.49
2023-05-08T00:58:23.020Z,11.46
2023-05-08T01:00:55.074Z,11.45
2023-05-08T01:03:35.946Z,11.41
2023-05-08T01:06:10.769Z,11.38
2023-05-08T01:08:39.721Z,11.34
2023-05-08T01:11:30.159Z,11.29
2023-05-08T01:14:12.361Z,11.27
2023-05-08T01:17:10.341Z,11.25
2023-05-08T01:20:09.358Z,11.22
2023-05-08T01:22:56.870Z,11.17
2023-05-08T01:26:05.967Z,11.14
2023-05-08T01:28:58.437Z,11.12
2023-05-08T01:31:33.713Z,11.08
2023-05-08T01:34:15.650Z,11.06
2023-05-08T01:36:52.447Z,11.03
2023-05-08T01:39:35.502Z,11.00
2023-05-08T01:42:30.405Z,10.97
2023-05-08T01:45:01.799Z,10.97
2023-05-08T01:47:34.746Z,10.95
2023-05-08T01:50:06.912Z,10.94
2023-05-08T01:52:49.301Z,10.94
2023-05-08T01:55:27.151Z,10.93
2023-05-08T01:57:59.695Z,10.94
2023-05-08T02:00:32.157Z,10.95
2023-05-08T02:03:01.929Z,10.97
2023-05-08T02:05:34.537Z,10.96
2023-05-08T02:08:02.833Z,10.92
2023-05-08T02:10:32.908Z,10.92
2023-05-08T02:13:04.608Z,10.91
2023-05-08T02:15:38.070Z,10.92
2023-05-08T02:18:10.371Z,10.92
2023-05-08T02:20:44.249Z,10.92
2023-05-08T02:23:17.314Z,10.91
2023-05-08T02:25:46.639Z,10.90
2023-05-08T02:28:15.906Z,10.87
2023-05-08T02:30:51.658Z,10.86
2023-05-08T02:33:25.260Z,10.87
2023-05-08T02:35:56.400Z,10.87
2023-05-08T02:38:25.271Z,10.84
2023-05-08T02:41:01.976Z,10.83
2023-05-08T02:43:36.492Z,10.80
2023-05-08T02:46:13.868Z,10.78
2023-05-08T02:49:00.823Z,10.79
2023-05-08T02:52:12.574Z,10.81
2023-05-08T02:55:33.832Z,10.81
2023-05-08T02:58:24.179Z,10.83
2023-05-08T03:00:59.826Z,10.81
2023-05-08T03:03:49.648Z,10.81
2023-05-08T03:06:24.146Z,10.82
2023-05-08T03:08:54.232Z,10.83
2023-05-08T03:11:28.409Z,10.86
2023-05-08T03:14:02.761Z,10.88
2023-05-08T03:16:37.021Z,10.94
2023-05-08T03:19:34.942Z,10.98
2023-05-08T03:22:06.383Z,11.02
2023-05-08T03:24:37.266Z,11.03
2023-05-08T03:27:05.917Z,11.03
2023-05-08T03:29:42.123Z,11.04
2023-05-08T03:32:12.660Z,11.02
2023-05-08T03:34:48.408Z,11.04
2023-05-08T03:37:20.166Z,11.09
2023-05-08T03:39:52.407Z,11.13
2023-05-08T03:42:24.982Z,11.14
2023-05-08T03:44:55.841Z,11.14
2023-05-08T03:47:26.504Z,11.16
2023-05-08T03:49:57.161Z,11.18
2023-05-08T03:52:33.823Z,11.18
2023-05-08T03:58:25.050Z,11.28
2023-05-08T04:01:27.909Z,11.34
2023-05-08T04:04:12.015Z,11.37
2023-05-08T04:07:31.031Z,11.36
2023-05-08T04:10:37.788Z,11.33
2023-05-08T04:13:29.579Z,11.35
2023-05-08T04:16:23.007Z,11.41
2023-05-08T04:19:02.055Z,11.45
2023-05-08T04:21:32.150Z,11.49
2023-05-08T04:24:02.733Z,11.54
2023-05-08T04:26:34.742Z,11.59
2023-05-08T04:29:32.103Z,11.66
2023-05-08T04:32:08.842Z,11.80
2023-05-08T04:34:47.730Z,11.91
2023-05-08T04:37:32.207Z,12.01
2023-05-08T04:40:11.081Z,12.07
2023-05-08T04:42:50.380Z,12.13
2023-05-08T04:45:51.330Z,12.28
2023-05-08T04:48:31.555Z,12.45
2023-05-08T04:51:07.783Z,12.56
2023-05-08T04:53:47.318Z,12.67
2023-05-08T04:56:15.032Z,12.78
2023-05-08T04:58:55.049Z,12.88
2023-05-08T05:01:49.563Z,12.94
2023-05-08T05:04:32.816Z,13.03
2023-05-08T05:07:31.769Z,13.09
2023-05-08T05:10:03.314Z,13.10
2023-05-08T05:12:48.033Z,13.05
2023-05-08T05:15:32.939Z,13.05
2023-05-08T05:18:20.731Z,13.05
2023-05-08T05:20:56.357Z,13.00
2023-05-08T05:23:56.145Z,12.96
2023-05-08T05:26:28.412Z,12.90
2023-05-08T05:29:23.718Z,12.88
2023-05-08T05:34:40.382Z,12.77
2023-05-08T05:37:14.796Z,12.86
2023-05-08T05:39:48.382Z,12.85
2023-05-08T05:42:18.692Z,12.79
2023-05-08T05:45:18.862Z,12.78
2023-05-08T05:47:57.771Z,12.86
2023-05-08T05:50:52.833Z,12.96
2023-05-08T05:53:32.111Z,13.11
2023-05-08T05:56:11.202Z,13.20
2023-05-08T05:58:44.426Z,13.26
2023-05-08T06:01:17.519Z,13.32
2023-05-08T06:03:49.187Z,13.33
2023-05-08T06:06:43.290Z,13.35
2023-05-08T06:09:20.958Z,13.41
2023-05-08T06:12:07.848Z,13.47
2023-05-08T06:14:48.131Z,13.42
2023-05-08T06:17:58.451Z,13.32
2023-05-08T06:20:28.337Z,13.25
2023-05-08T06:23:12.694Z,13.33
2023-05-08T06:26:11.031Z,13.34
2023-05-08T06:28:47.704Z,13.23
2023-05-08T06:31:27.516Z,13.16
2023-05-08T06:33:59.415Z,13.09
2023-05-08T06:36:33.086Z,13.09
2023-05-08T06:39:12.238Z,13.07
2023-05-08T06:41:51.497Z,13.05
2023-05-08T06:44:32.238Z,13.07
2023-05-08T06:47:03.479Z,13.08
2023-05-08T06:49:42.670Z,13.08
2023-05-08T06:52:49.490Z,13.12
2023-05-08T06:55:50.085Z,13.07
2023-05-08T06:58:39.354Z,13.02
2023-05-08T07:01:15.026Z,13.02
2023-05-08T07:04:54.768Z,13.08
2023-05-08T07:11:21.505Z,13.29
2023-05-08T07:13:59.867Z,13.38
2023-05-08T07:17:30.865Z,13.48
2023-05-08T07:21:00.748Z,13.64
2023-05-08T07:24:06.937Z,13.85
2023-05-08T07:26:37.852Z,13.90
2023-05-08T07:30:05.328Z,13.94
2023-05-08T07:32:55.860Z,14.02
2023-05-08T07:35:31.005Z,14.15
2023-05-08T07:38:08.488Z,14.30
2023-05-08T07:41:00.967Z,14.46
2023-05-08T07:43:41.234Z,14.62
2023-05-08T07:46:30.630Z,14.70
2023-05-08T07:49:08.051Z,14.74
2023-05-08T07:51:45.035Z,14.73
2023-05-08T07:54:16.907Z,14.63
2023-05-08T07:56:56.331Z,14.37
2023-05-08T07:59:30.958Z,14.20
2023-05-08T08:02:09.972Z,14.17
2023-05-08T08:04:42.779Z,14.28
2023-05-08T08:07:23.402Z,14.41
2023-05-08T08:10:04.198Z,14.57
2023-05-08T08:12:38.733Z,14.66
2023-05-08T08:15:28.292Z,14.74
2023-05-08T08:18:02.758Z,14.84
2023-05-08T08:20:49.307Z,14.88
2023-05-08T08:23:19.803Z,14.88
2023-05-08T08:25:56.081Z,14.88
2023-05-08T08:28:29.260Z,14.85
2023-05-08T08:31:02.591Z,14.82
2023-05-08T08:33:42.596Z,14.85
2023-05-08T08:37:12.292Z,14.91
2023-05-08T08:39:45.921Z,14.98
2023-05-08T08:42:25.067Z,15.01
2023-05-08T08:44:56.067Z,15.05
2023-05-08T08:47:33.954Z,15.05
2023-05-08T08:50:40.281Z,14.96
2023-05-08T08:53:45.574Z,14.90
2023-05-08T08:56:24.982Z,14.89
2023-05-08T08:59:05.450Z,14.92
2023-05-08T09:02:28.981Z,14.95
2023-05-08T09:05:05.142Z,14.99
2023-05-08T09:07:42.935Z,15.02
2023-05-08T09:10:26.463Z,15.02
2023-05-08T09:13:28.463Z,15.02
2023-05-08T09:16:18.648Z,15.06
2023-05-08T09:19:20.989Z,15.16
2023-05-08T09:22:49.025Z,15.29
2023-05-08T09:25:19.902Z,15.38
2023-05-08T09:27:56.878Z,15.36
2023-05-08T09:30:30.537Z,15.36
2023-05-08T09:33:13.977Z,15.39
2023-05-08T09:36:33.442Z,15.41
2023-05-08T09:39:13.469Z,15.46
2023-05-08T09:42:00.918Z,15.47
2023-05-08T09:44:53.971Z,15.54
2023-05-08T09:47:25.873Z,15.59
2023-05-08T09:50:26.793Z,15.62
2023-05-08T09:52:58.497Z,15.66
2023-05-08T09:55:51.433Z,15.70
2023-05-08T09:58:32.477Z,15.81
2023-05-08T10:01:12.366Z,15.87
2023-05-08T10:03:52.722Z,15.93
2023-05-08T10:06:55.904Z,16.00
2023-05-08T10:09:51.020Z,16.04
2023-05-08T10:12:48.886Z,16.09
2023-05-08T10:15:27.004Z,16.16
2023-05-08T10:18:07.790Z,16.17
2023-05-08T10:20:48.936Z,16.18
2023-05-08T10:23:21.167Z,16.23
2023-05-08T10:26:21.141Z,16.27
2023-05-08T10:29:00.626Z,16.41
2023-05-08T10:31:41.228Z,16.59
2023-05-08T10:34:21.305Z,16.67
2023-05-08T10:37:03.278Z,16.72
2023-05-08T10:40:06.656Z,16.76
2023-05-08T10:42:41.212Z,16.79
2023-05-08T10:45:55.151Z,16.82
2023-05-08T10:49:08.523Z,16.90
2023-05-08T10:52:50.015Z,16.90
2023-05-08T10:55:42.124Z,16.89
2023-05-08T10:58:49.298Z,16.93
2023-05-08T11:02:22.303Z,17.01
2023-05-08T11:05:16.738Z,17.04
2023-05-08T11:08:23.739Z,17.10
2023-05-08T11:11:43.137Z,17.07
2023-05-08T11:14:17.955Z,16.98
2023-05-08T11:17:09.986Z,17.02
2023-05-08T11:19:56.746Z,17.10
2023-05-08T11:22:33.628Z,17.21
2023-05-08T11:25:44.161Z,17.26
2023-05-08T11:28:16.086Z,17.29
2023-05-08T11:30:54.049Z,17.28
2023-05-08T11:33:44.404Z,17.24
2023-05-08T11:36:40.143Z,17.23
2023-05-08T11:39:20.940Z,17.28
2023-05-08T11:42:38.175Z,17.37
2023-05-08T11:45:16.342Z,17.50
2023-05-08T11:47:58.711Z,17.59
2023-05-08T11:50:31.567Z,17.63
2023-05-08T11:53:22.585Z,17.64
2023-05-08T11:55:55.869Z,17.64
2023-05-08T11:59:24.388Z,17.68
2023-05-08T12:02:09.499Z,17.75
2023-05-08T12:05:28.413Z,17.80
2023-05-08T12:08:02.862Z,17.96
2023-05-08T12:11:00.310Z,18.03
2023-05-08T12:13:44.113Z,18.10
2023-05-08T12:16:16.590Z,18.14
2023-05-08T12:18:54.283Z,18.16
2023-05-08T12:22:00.002Z,18.15
2023-05-08T12:24:35.313Z,18.13
2023-05-08T12:27:15.440Z,18.04
2023-05-08T12:30:18.599Z,17.91
2023-05-08T12:32:55.017Z,17.86
2023-05-08T12:35:30.826Z,17.94
2023-05-08T12:38:17.697Z,18.00
2023-05-08T12:41:05.998Z,17.88
2023-05-08T12:44:28.870Z,17.51
2023-05-08T12:47:13.628Z,17.04
2023-05-08T12:49:50.658Z,16.80
2023-05-08T12:53:42.537Z,16.73
2023-05-08T12:56:23.940Z,16.83
2023-05-08T12:59:04.321Z,16.95
2023-05-08T13:01:51.415Z,17.13
2023-05-08T13:05:09.193Z,17.29
2023-05-08T13:08:19.295Z,17.28
2023-05-08T13:11:17.276Z,17.17
2023-05-08T13:13:56.233Z,17.22
2023-05-08T13:16:53.499Z,17.31
2023-05-08T13:19:31.371Z,17.34
2023-05-08T13:22:12.435Z,17.43
2023-05-08T13:24:51.392Z,17.57
2023-05-08T13:27:45.912Z,17.72
2023-05-08T13:30:51.489Z,17.73
2023-05-08T13:34:18.757Z,17.53
2023-05-08T13:37:51.354Z,17.14
2023-05-08T13:41:42.935Z,17.11
2023-05-08T13:44:46.382Z,17.20
2023-05-08T13:48:13.378Z,17.28
2023-05-08T13:51:09.488Z,17.46
2023-05-08T13:54:06.812Z,17.67
2023-05-08T13:57:34.462Z,17.80
2023-05-08T14:00:43.318Z,17.83
2023-05-08T14:04:04.621Z,17.82
2023-05-08T14:07:34.233Z,17.82
2023-05-08T14:10:29.211Z,17.83
2023-05-08T14:13:34.232Z,17.87
2023-05-08T14:16:16.262Z,17.77
2023-05-08T14:19:04.807Z,17.71
2023-05-08T14:21:54.887Z,17.86
2023-05-08T14:24:38.413Z,17.97
2023-05-08T14:32:34.006Z,17.97
2023-05-08T14:35:22.670Z,17.95
2023-05-08T14:38:23.866Z,17.84
2023-05-08T14:41:26.645Z,17.88
2023-05-08T14:44:05.205Z,17.88
2023-05-08T14:47:38.497Z,17.76
2023-05-08T14:50:27.727Z,17.55
2023-05-08T14:53:18.539Z,17.46
2023-05-08T14:59:31.748Z,17.82
2023-05-08T15:07:05.013Z,17.83
2023-05-08T15:09:52.906Z,17.98
2023-05-08T15:30:03.190Z,17.09
2023-05-08T16:08:57.726Z,15.41
2023-05-08T16:12:24.283Z,15.30
2023-05-08T16:23:30.408Z,15.19
2023-05-08T16:26:11.193Z,15.17
2023-05-08T16:29:07.227Z,15.10
2023-05-08T16:32:02.755Z,15.03
2023-05-08T16:34:38.871Z,14.95
2023-05-08T16:37:29.498Z,14.94
2023-05-08T16:40:13.668Z,14.91
2023-05-08T16:43:50.528Z,14.86
2023-05-08T16:47:14.599Z,14.77
2023-05-08T16:49:54.701Z,14.70
2023-05-08T16:52:35.517Z,14.64
2023-05-08T16:55:13.712Z,14.59
2023-05-08T16:59:05.153Z,14.51
2023-05-08T17:02:21.700Z,14.40
2023-05-08T17:05:18.792Z,14.30
2023-05-08T17:23:06.565Z,13.85
2023-05-08T17:26:12.205Z,13.74
2023-05-08T17:29:03.360Z,13.67
2023-05-08T17:31:48.265Z,13.52
2023-05-08T17:34:55.205Z,13.56
2023-05-08T17:38:18.413Z,13.53
2023-05-08T17:41:25.580Z,13.42
2023-05-08T17:45:04.872Z,13.42
2023-05-08T17:47:54.633Z,13.37
2023-05-08T17:52:37.559Z,13.28
2023-05-08T17:55:31.772Z,13.35
2023-05-08T18:28:37.192Z,12.77
2023-05-08T18:31:24.105Z,12.74
2023-05-08T18:38:25.458Z,12.75
2023-05-08T18:41:49.247Z,12.73
2023-05-08T18:44:28.955Z,12.74
2023-05-08T18:47:59.494Z,12.71
2023-05-08T18:50:44.772Z,12.72
2023-05-08T18:53:25.760Z,12.66
2023-05-08T18:57:14.902Z,12.60
2023-05-08T19:00:20.253Z,12.57
2023-05-08T19:03:20.996Z,12.55
2023-05-08T19:09:09.548Z,12.56
2023-05-08T19:12:03.174Z,12.54
2023-05-08T19:14:37.473Z,12.54
2023-05-08T19:17:55.659Z,12.49
2023-05-08T19:25:15.484Z,12.50
2023-05-08T19:28:07.578Z,12.50
2023-05-08T19:31:34.782Z,12.51
2023-05-08T19:35:23.630Z,12.51
2023-05-08T19:39:25.977Z,12.47
2023-05-08T19:42:15.984Z,12.36
2023-05-08T19:50:03.565Z,12.25
2023-05-08T19:52:50.086Z,12.19
2023-05-08T19:55:32.733Z,12.15
2023-05-08T19:58:33.428Z,12.12
2023-05-08T20:01:40.520Z,12.10
2023-05-08T20:05:18.747Z,12.05
2023-05-08T20:08:00.206Z,12.03
2023-05-08T20:10:52.020Z,11.99
2023-05-08T20:13:35.223Z,11.98
2023-05-08T20:16:29.786Z,11.96
2023-05-08T20:19:28.431Z,11.94
2023-05-08T20:30:43.499Z,11.84
2023-05-08T20:40:58.207Z,11.87
2023-05-08T20:43:51.949Z,11.90
2023-05-08T20:46:44.471Z,11.84
2023-05-08T20:49:28.830Z,11.79
2023-05-08T20:52:15.585Z,11.77
2023-05-08T20:55:45.190Z,11.76
2023-05-08T20:58:42.712Z,11.76
2023-05-08T21:01:21.139Z,11.75
2023-05-08T21:05:21.791Z,11.72
2023-05-08T21:08:01.472Z,11.66
2023-05-08T21:11:13.775Z,11.61
2023-05-08T21:14:00.278Z,11.61
2023-05-08T21:16:35.010Z,11.59
2023-05-08T21:19:15.728Z,11.58
2023-05-08T21:22:01.826Z,11.58
2023-05-08T21:24:36.121Z,11.58
2023-05-08T21:27:15.785Z,11.57
2023-05-08T21:30:00.237Z,11.55
2023-05-08T21:32:35.436Z,11.52
2023-05-08T21:35:14.250Z,11.49
2023-05-08T21:38:36.417Z,11.47
2023-05-08T21:41:09.444Z,11.40
2023-05-08T21:43:49.084Z,11.36
2023-05-08T21:46:46.065Z,11.35
2023-05-08T21:49:25.344Z,11.32
2023-05-08T21:52:01.333Z,11.29
2023-05-08T21:54:46.568Z,11.26
2023-05-08T21:57:43.252Z,11.27
2023-05-08T22:00:22.035Z,11.24
2023-05-08T22:02:57.774Z,11.21
2023-05-08T22:05:38.439Z,11.18
2023-05-08T22:08:39.309Z,11.17
2023-05-08T22:11:09.500Z,11.15
2023-05-08T22:13:40.358Z,11.11
2023-05-08T22:16:26.109Z,11.06
2023-05-08T22:19:08.282Z,11.01
2023-05-08T22:21:44.371Z,10.95
2023-05-08T22:24:20.502Z,10.89
2023-05-08T22:27:02.339Z,10.84
2023-05-08T22:30:56.622Z,10.78
2023-05-08T22:33:34.108Z,10.72
2023-05-08T22:36:12.996Z,10.63
2023-05-08T22:38:46.260Z,10.58
2023-05-08T22:41:23.273Z,10.55
2023-05-08T22:44:34.908Z,10.52
2023-05-08T22:47:19.072Z,10.48
2023-05-08T22:50:00.823Z,10.42
2023-05-08T22:52:34.999Z,10.39
2023-05-08T22:55:22.564Z,10.33
2023-05-08T22:58:17.011Z,10.30
2023-05-08T23:00:56.529Z,10.28
2023-05-08T23:03:33.747Z,10.24
2023-05-08T23:06:11.507Z,10.21
2023-05-08T23:08:46.394Z,10.19
2023-05-08T23:11:27.316Z,10.16
2023-05-08T23:14:35.414Z,10.13
2023-05-08T23:20:43.141Z,10.07
2023-05-08T23:23:34.054Z,10.04
2023-05-08T23:26:09.198Z,10.00
2023-05-08T23:28:40.630Z,9.95
2023-05-08T23:31:27.611Z,9.91
2023-05-08T23:34:03.981Z,9.88
2023-05-08T23:36:48.376Z,9.86
2023-05-08T23:39:51.636Z,9.85
2023-05-08T23:43:13.529Z,9.82
2023-05-08T23:45:48.947Z,9.76
2023-05-08T23:48:25.882Z,9.73
2023-05-08T23:50:59.939Z,9.72
2023-05-08T23:53:38.501Z,9.72
2023-05-08T23:56:37.796Z,9.69
2023-05-08T23:59:12.885Z,9.65
